Plum Lake, Wisconsin
Current Conditions -  °F | °C
As of 3:35 PM on Saturday 22 Nov 2014 (Local Time) from KARV Reporting Station
Haze Haze  
Wind Chill: 32°   Ceiling: 600
Heat Index: 37°   Visibility: 5mi
Dew Point: 34°   Wind: 6mph
Humidity: 91%   Direction: 220°SW
Pressure: 29.69"   Gusts: NA
Location:  46.0162°N, 89.524°W
Report Text: KARV 222135Z AUTO 22005KT 5SM BR OVC006 03/01 A2969 RMK AO2 T00250011
Loading
Personal Weather Stations






























Interactive Weather Map New forecast layout! Learn more

10-Day Weather Forecast

Advertisements
Track Severe Weather on mobile